createdAt,value
2022-08-25T00:00:29.382Z,7.90
2022-08-25T00:05:32.448Z,8.60
2022-08-25T00:10:30.903Z,8.20
2022-08-25T00:15:31.762Z,8.50
2022-08-25T00:20:32.530Z,8.50
2022-08-25T00:25:33.282Z,8.50
2022-08-25T00:30:34.037Z,8.60
2022-08-25T00:35:34.752Z,8.30
2022-08-25T00:40:42.686Z,8.60
2022-08-25T00:45:36.465Z,8.30
2022-08-25T00:50:37.203Z,8.90
2022-08-25T00:55:37.914Z,8.70
2022-08-25T01:00:38.623Z,8.60
2022-08-25T01:05:39.390Z,9.30
2022-08-25T01:10:40.163Z,11.20
2022-08-25T01:15:40.872Z,9.00
2022-08-25T01:20:41.612Z,9.30
2022-08-25T01:25:42.360Z,9.00
2022-08-25T01:30:43.113Z,9.20
2022-08-25T01:35:43.914Z,9.20
2022-08-25T01:40:44.600Z,9.00
2022-08-25T01:45:45.412Z,9.60
2022-08-25T01:50:46.096Z,9.30
2022-08-25T01:55:46.824Z,9.20
2022-08-25T02:00:47.785Z,9.30
2022-08-25T02:05:48.727Z,9.40
2022-08-25T02:10:49.339Z,9.20
2022-08-25T02:15:50.070Z,9.10
2022-08-25T02:20:50.748Z,9.70
2022-08-25T02:25:51.552Z,9.70
2022-08-25T02:30:52.309Z,9.40
2022-08-25T02:35:53.883Z,9.80
2022-08-25T02:40:53.585Z,9.40
2022-08-25T02:45:54.402Z,10.10
2022-08-25T02:50:55.151Z,10.00
2022-08-25T02:55:55.882Z,10.50
2022-08-25T03:00:56.656Z,10.10
2022-08-25T03:05:57.404Z,10.20
2022-08-25T03:10:58.170Z,10.50
2022-08-25T03:15:58.912Z,9.80
2022-08-25T03:21:00.763Z,10.60
2022-08-25T03:26:00.715Z,10.70
2022-08-25T03:31:01.431Z,10.30
2022-08-25T03:36:01.678Z,12.00
2022-08-25T03:41:02.416Z,12.30
2022-08-25T03:46:03.195Z,11.70
2022-08-25T03:51:03.874Z,13.40
2022-08-25T03:56:04.533Z,14.80
2022-08-25T04:01:05.280Z,16.00
2022-08-25T04:06:05.937Z,18.60
2022-08-25T04:11:06.590Z,20.20
2022-08-25T04:16:07.314Z,20.70
2022-08-25T04:21:07.945Z,21.30
2022-08-25T04:26:08.635Z,21.80
2022-08-25T04:31:09.442Z,22.70
2022-08-25T04:36:12.207Z,22.90
2022-08-25T04:41:10.716Z,23.10
2022-08-25T04:46:11.439Z,22.90
2022-08-25T04:51:12.079Z,23.00
2022-08-25T04:56:12.724Z,20.20
2022-08-25T05:01:13.745Z,21.00
2022-08-25T05:06:16.050Z,20.90
2022-08-25T05:11:14.532Z,20.80
2022-08-25T05:16:15.218Z,21.50
2022-08-25T05:21:15.708Z,20.70
2022-08-25T05:26:19.719Z,19.20
2022-08-25T05:31:17.112Z,18.00
2022-08-25T05:36:17.729Z,17.70
2022-08-25T05:41:18.570Z,18.80
2022-08-25T05:46:19.393Z,20.10
2022-08-25T05:51:20.240Z,18.70
2022-08-25T05:56:20.856Z,20.00
2022-08-25T06:01:21.652Z,20.00
2022-08-25T06:06:22.428Z,19.60
2022-08-25T06:11:23.123Z,20.10
2022-08-25T06:16:23.925Z,20.80
2022-08-25T06:21:24.565Z,20.60
2022-08-25T06:26:25.280Z,22.10
2022-08-25T06:31:25.973Z,22.70
2022-08-25T06:36:26.650Z,22.40
2022-08-25T06:41:36.992Z,23.30
2022-08-25T06:46:36.095Z,23.30
2022-08-25T06:51:28.411Z,21.50
2022-08-25T06:56:29.063Z,23.80
2022-08-25T07:01:29.804Z,24.90
2022-08-25T07:06:30.439Z,25.40
2022-08-25T07:11:31.093Z,25.60
2022-08-25T07:16:31.839Z,26.50
2022-08-25T07:21:33.582Z,26.70
2022-08-25T07:26:37.896Z,26.30
2022-08-25T07:31:34.793Z,25.70
2022-08-25T07:36:34.559Z,27.30
2022-08-25T07:41:35.219Z,27.20
2022-08-25T07:46:35.914Z,26.90
2022-08-25T07:51:36.550Z,26.10
2022-08-25T07:56:38.106Z,26.60
2022-08-25T08:01:38.640Z,27.60
2022-08-25T08:06:38.504Z,27.80
2022-08-25T08:11:42.556Z,27.60
2022-08-25T08:16:40.731Z,25.90
2022-08-25T08:21:40.157Z,23.60
2022-08-25T08:26:57.846Z,24.20
2022-08-25T08:31:48.798Z,22.20
2022-08-25T08:36:42.894Z,20.20
2022-08-25T08:42:07.672Z,18.90
2022-08-25T08:46:44.161Z,17.40
2022-08-25T08:51:43.819Z,16.30
2022-08-25T08:56:45.294Z,15.00
2022-08-25T09:01:45.099Z,14.60
2022-08-25T09:06:45.809Z,12.90
2022-08-25T09:11:46.427Z,13.10
2022-08-25T09:16:47.167Z,13.50
2022-08-25T09:21:47.833Z,13.60
2022-08-25T09:26:48.550Z,13.20
2022-08-25T09:31:49.242Z,13.50
2022-08-25T09:36:49.915Z,12.40
2022-08-25T09:41:51.225Z,12.60
2022-08-25T09:46:51.222Z,12.00
2022-08-25T09:51:52.751Z,12.30
2022-08-25T09:56:52.464Z,11.70
2022-08-25T10:01:53.189Z,11.60
2022-08-25T10:06:53.846Z,10.90
2022-08-25T10:11:57.499Z,10.10
2022-08-25T10:16:55.413Z,9.10
2022-08-25T10:21:56.105Z,8.80
2022-08-25T10:26:56.978Z,8.10
2022-08-25T10:31:57.721Z,8.70
2022-08-25T10:36:58.345Z,9.30
2022-08-25T10:41:59.106Z,7.50
2022-08-25T10:47:00.139Z,7.50
2022-08-25T10:52:00.867Z,7.50
2022-08-25T10:57:02.034Z,7.70
2022-08-25T11:02:02.355Z,6.80
2022-08-25T11:07:03.129Z,7.00
2022-08-25T11:12:03.502Z,6.80
2022-08-25T11:17:04.208Z,7.00
2022-08-25T11:22:04.946Z,6.90
2022-08-25T11:27:05.583Z,6.20
2022-08-25T11:32:06.279Z,6.00
2022-08-25T11:37:06.916Z,6.10
2022-08-25T11:42:07.480Z,6.30
2022-08-25T11:47:11.197Z,6.10
2022-08-25T11:52:09.752Z,5.90
2022-08-25T11:57:09.466Z,6.10
2022-08-25T12:02:10.146Z,5.80
2022-08-25T12:07:10.765Z,5.40
2022-08-25T12:12:11.452Z,5.60
2022-08-25T12:17:12.291Z,6.10
2022-08-25T12:22:12.960Z,5.80
2022-08-25T12:27:13.632Z,5.80
2022-08-25T12:32:14.293Z,6.10
2022-08-25T12:37:14.986Z,5.80
2022-08-25T12:42:15.663Z,5.90
2022-08-25T12:47:16.341Z,5.50
2022-08-25T12:52:17.292Z,5.70
2022-08-25T12:57:17.980Z,5.90
2022-08-25T13:02:19.578Z,5.70
2022-08-25T13:07:19.395Z,5.70
2022-08-25T13:12:20.046Z,5.70
2022-08-25T13:17:20.732Z,5.60
2022-08-25T13:22:21.379Z,5.70
2022-08-25T13:27:22.520Z,5.40
2022-08-25T13:32:22.700Z,6.20
2022-08-25T13:37:23.440Z,5.50
2022-08-25T13:42:28.667Z,5.20
2022-08-25T13:47:25.638Z,5.50
2022-08-25T13:52:29.100Z,5.30
2022-08-25T13:57:30.237Z,5.50
2022-08-25T14:02:26.668Z,6.00
2022-08-25T14:07:27.347Z,5.40
2022-08-25T14:12:28.917Z,5.50
2022-08-25T14:17:39.152Z,5.10
2022-08-25T14:22:30.102Z,5.20
2022-08-25T14:27:29.763Z,5.20
2022-08-25T14:32:30.419Z,5.20
2022-08-25T14:37:32.445Z,5.30
2022-08-25T14:42:31.666Z,5.30
2022-08-25T14:47:32.345Z,5.30
2022-08-25T14:52:32.995Z,5.20
2022-08-25T14:57:33.479Z,5.30
2022-08-25T15:02:37.580Z,5.00
2022-08-25T15:07:34.735Z,5.30
2022-08-25T15:12:46.666Z,5.30
2022-08-25T15:17:36.964Z,4.90
2022-08-25T15:22:36.808Z,5.10
2022-08-25T15:27:37.475Z,5.30
2022-08-25T15:32:38.144Z,5.00
2022-08-25T15:37:39.036Z,5.20
2022-08-25T15:42:42.963Z,5.00
2022-08-25T15:47:41.247Z,5.20
2022-08-25T15:52:48.566Z,5.30
2022-08-25T15:57:42.418Z,5.00
2022-08-25T16:02:42.084Z,5.00
2022-08-25T16:07:42.718Z,5.10
2022-08-25T16:12:43.402Z,4.80
2022-08-25T16:17:46.951Z,5.10
2022-08-25T16:22:46.054Z,4.90
2022-08-25T16:27:45.262Z,5.20
2022-08-25T16:32:46.378Z,5.20
2022-08-25T16:37:47.142Z,5.40
2022-08-25T16:42:47.858Z,5.20
2022-08-25T16:47:48.494Z,4.80
2022-08-25T16:52:49.358Z,5.40
2022-08-25T16:57:50.110Z,5.60
2022-08-25T17:02:50.839Z,5.70
2022-08-25T17:07:51.620Z,5.80
2022-08-25T17:12:52.326Z,5.50
2022-08-25T17:17:52.955Z,5.40
2022-08-25T17:22:53.719Z,5.40
2022-08-25T17:27:57.538Z,5.20
2022-08-25T17:32:55.390Z,5.50
2022-08-25T17:37:55.960Z,5.70
2022-08-25T17:43:04.733Z,5.90
2022-08-25T17:48:04.345Z,5.60
2022-08-25T17:52:58.032Z,6.10
2022-08-25T17:57:58.771Z,6.10
2022-08-25T18:02:59.507Z,6.30
2022-08-25T18:08:00.289Z,6.50
2022-08-25T18:13:00.996Z,6.40
2022-08-25T18:18:01.768Z,6.50
2022-08-25T18:23:02.219Z,6.80
2022-08-25T18:28:03.184Z,6.00
2022-08-25T18:33:03.381Z,7.60
2022-08-25T18:38:04.178Z,6.90
2022-08-25T18:43:05.602Z,6.90
2022-08-25T18:48:05.994Z,7.00
2022-08-25T18:53:06.380Z,7.10
2022-08-25T18:58:07.416Z,8.50
2022-08-25T19:03:07.755Z,9.70
2022-08-25T19:08:08.382Z,8.80
2022-08-25T19:13:08.776Z,7.50
2022-08-25T19:18:10.771Z,7.60
2022-08-25T19:23:10.262Z,7.40
2022-08-25T19:28:11.802Z,8.00
2022-08-25T19:33:11.933Z,7.50
2022-08-25T19:38:33.579Z,6.80
2022-08-25T19:43:14.343Z,7.70
2022-08-25T19:48:14.087Z,7.40
2022-08-25T19:53:14.897Z,7.40
2022-08-25T19:58:15.734Z,7.60
2022-08-25T20:03:16.122Z,7.30
2022-08-25T20:08:16.976Z,8.80
2022-08-25T20:13:18.583Z,8.10
2022-08-25T20:18:18.592Z,7.60
2022-08-25T20:23:19.435Z,9.00
2022-08-25T20:28:20.365Z,7.70
2022-08-25T20:33:23.098Z,7.80
2022-08-25T20:38:21.773Z,8.30
2022-08-25T20:43:22.480Z,8.60
2022-08-25T20:48:23.237Z,8.30
2022-08-25T20:53:25.220Z,9.00
2022-08-25T20:58:24.566Z,8.40
2022-08-25T21:03:25.280Z,8.10
2022-08-25T21:08:27.050Z,8.10
2022-08-25T21:13:26.499Z,8.00
2022-08-25T21:18:31.436Z,8.50
2022-08-25T21:23:27.864Z,8.60
2022-08-25T21:28:28.635Z,8.20
2022-08-25T21:33:29.368Z,8.50
2022-08-25T21:38:30.170Z,9.90
2022-08-25T21:43:30.990Z,9.50
2022-08-25T21:48:31.661Z,9.80
2022-08-25T21:53:32.446Z,9.50
2022-08-25T21:58:33.181Z,9.20
2022-08-25T22:03:33.897Z,9.20
2022-08-25T22:08:34.632Z,8.90
2022-08-25T22:13:35.287Z,8.90
2022-08-25T22:18:36.031Z,9.40
2022-08-25T22:23:44.129Z,8.50
2022-08-25T22:28:38.709Z,8.30
2022-08-25T22:33:38.509Z,10.40
2022-08-25T22:38:39.210Z,8.40
2022-08-25T22:43:39.576Z,8.50
2022-08-25T22:48:40.313Z,8.80
2022-08-25T22:53:41.258Z,9.40
2022-08-25T22:58:41.986Z,8.80
2022-08-25T23:03:44.387Z,8.60
2022-08-25T23:08:43.445Z,8.80
2022-08-25T23:13:44.264Z,9.30
2022-08-25T23:18:45.079Z,9.10
2022-08-25T23:23:45.778Z,8.40
2022-08-25T23:28:46.544Z,8.30
2022-08-25T23:33:47.287Z,8.70
2022-08-25T23:38:51.505Z,8.60
2022-08-25T23:43:48.917Z,8.40
2022-08-25T23:48:49.308Z,8.60
2022-08-25T23:53:50.077Z,8.30
2022-08-25T23:58:50.811Z,8.40
